Time;durP1;ratioP1;P1;durP2;ratioP2;P2;SDS_P1;SDS_P2;PMS_P1;PMS_P2;Temp;Humidity;BMP_temperature;BMP_pressure;BME280_temperature;BME280_humidity;BME280_pressure;Samples;Min_cycle;Max_cycle;Signal;HPM_P1;HPM_P2
2021/12/08 00:00:53;;;;;;;12.75;5.15;;;3.40;99.90;;;;;;5133958;27;20035;-57
2021/12/08 00:03:19;;;;;;;14.65;4.97;;;3.40;99.90;;;;;;5128721;27;20035;-58
2021/12/08 00:05:46;;;;;;;11.52;4.97;;;3.40;99.90;;;;;;5130722;27;20110;-58
2021/12/08 00:08:15;;;;;;;12.27;5.22;;;3.40;99.90;;;;;;5131595;27;20505;-58
2021/12/08 00:13:35;;;;;;;11.82;4.70;;;3.40;99.90;;;;;;5090039;27;20390;-58
2021/12/08 00:16:09;;;;;;;17.88;4.82;;;3.40;99.90;;;;;;5135072;27;20497;-59
2021/12/08 00:18:36;;;;;;;12.20;4.35;;;3.40;99.90;;;;;;5129121;27;20035;-59
2021/12/08 00:21:06;;;;;;;9.02;4.30;;;3.50;99.90;;;;;;5130634;27;20039;-59
2021/12/08 00:23:31;;;;;;;10.77;4.50;;;3.50;99.90;;;;;;5131218;27;20123;-58
2021/12/08 00:25:58;;;;;;;12.70;4.97;;;3.50;99.90;;;;;;5131395;27;20056;-58
2021/12/08 00:28:24;;;;;;;11.10;4.30;;;3.50;99.90;;;;;;5133723;27;20504;-58
2021/12/08 00:30:53;;;;;;;8.60;4.25;;;3.40;99.90;;;;;;5133100;27;20424;-58
2021/12/08 00:33:21;;;;;;;11.45;5.00;;;3.40;99.90;;;;;;5130830;27;20540;-59
2021/12/08 00:35:49;;;;;;;12.52;5.22;;;3.40;99.90;;;;;;5123750;27;20039;-59
2021/12/08 00:38:17;;;;;;;15.05;4.85;;;3.40;99.90;;;;;;5133843;27;20035;-59
2021/12/08 00:40:44;;;;;;;10.02;4.60;;;3.40;99.90;;;;;;5129242;27;20641;-58
2021/12/08 00:43:10;;;;;;;10.65;5.35;;;3.40;99.90;;;;;;5135087;27;20043;-59
2021/12/08 00:45:36;;;;;;;14.00;5.60;;;3.40;99.90;;;;;;5131200;27;20389;-59
2021/12/08 00:48:03;;;;;;;14.85;5.45;;;3.40;99.90;;;;;;5133706;27;20125;-58
2021/12/08 00:50:31;;;;;;;13.27;5.60;;;3.40;99.90;;;;;;5129792;27;20035;-59
2021/12/08 00:52:58;;;;;;;15.13;5.75;;;3.40;99.90;;;;;;5132079;27;20039;-58
2021/12/08 00:55:25;;;;;;;16.45;5.65;;;3.40;99.90;;;;;;5126879;27;20393;-57
2021/12/08 00:57:53;;;;;;;17.92;6.40;;;3.40;99.90;;;;;;5134796;27;20031;-58
2021/12/08 01:00:28;;;;;;;13.55;6.22;;;3.30;99.90;;;;;;5130070;27;20051;-60
2021/12/08 01:02:54;;;;;;;15.25;6.82;;;3.40;99.90;;;;;;5128995;27;20046;-58
2021/12/08 01:05:24;;;;;;;12.38;6.65;;;3.40;99.90;;;;;;5130178;27;20038;-59
2021/12/08 01:07:50;;;;;;;14.57;6.70;;;3.40;99.90;;;;;;5131409;27;20066;-58
2021/12/08 01:10:21;;;;;;;16.08;6.70;;;3.40;99.90;;;;;;5124976;27;20043;-59
2021/12/08 01:12:46;;;;;;;19.75;7.60;;;3.40;99.90;;;;;;5132285;27;20049;-58
2021/12/08 01:15:13;;;;;;;14.30;6.90;;;3.40;99.90;;;;;;5130270;27;20422;-60
2021/12/08 01:17:40;;;;;;;16.48;7.05;;;3.40;99.90;;;;;;5130032;27;20070;-59
2021/12/08 01:20:08;;;;;;;15.32;6.85;;;3.40;99.90;;;;;;5129578;27;20115;-59
2021/12/08 01:22:34;;;;;;;14.10;7.25;;;3.40;99.90;;;;;;5130956;27;20530;-59
2021/12/08 01:25:00;;;;;;;17.77;7.38;;;3.40;99.90;;;;;;5127314;27;20115;-60
2021/12/08 01:27:26;;;;;;;20.08;7.35;;;3.40;99.90;;;;;;5134606;27;20046;-59
2021/12/08 01:29:52;;;;;;;13.68;7.35;;;3.40;99.90;;;;;;5128867;27;20054;-59
2021/12/08 01:32:19;;;;;;;16.20;7.43;;;3.40;99.90;;;;;;5130242;27;20035;-59
2021/12/08 01:34:45;;;;;;;15.23;7.15;;;3.50;99.90;;;;;;5130322;27;20035;-59
2021/12/08 01:37:11;;;;;;;17.85;7.70;;;3.50;99.90;;;;;;5127385;27;20042;-58
2021/12/08 01:39:37;;;;;;;14.30;7.43;;;3.50;99.90;;;;;;5132516;27;20031;-57
2021/12/08 01:42:03;;;;;;;13.80;6.90;;;3.50;99.90;;;;;;5128041;27;20035;-58
2021/12/08 01:47:13;;;;;;;12.52;8.38;;;3.50;99.90;;;;;;5131100;27;20126;-60
2021/12/08 01:49:39;;;;;;;18.85;9.43;;;3.60;99.90;;;;;;5129081;27;20126;-58
2021/12/08 01:52:05;;;;;;;17.20;8.85;;;3.60;99.90;;;;;;5127520;27;20031;-58
2021/12/08 01:54:31;;;;;;;17.98;9.13;;;3.60;99.90;;;;;;5121752;27;20043;-59
2021/12/08 01:56:57;;;;;;;18.40;9.80;;;3.60;99.90;;;;;;5120236;27;20733;-59
2021/12/08 01:59:23;;;;;;;19.67;9.63;;;3.60;99.90;;;;;;5131770;27;20395;-59
2021/12/08 02:01:48;;;;;;;22.02;10.50;;;3.60;99.90;;;;;;5132848;27;20046;-58
2021/12/08 02:04:15;;;;;;;27.98;11.20;;;3.60;99.90;;;;;;5131698;27;20058;-58
2021/12/08 02:06:46;;;;;;;19.98;10.63;;;3.60;99.90;;;;;;5116486;27;21940;-58
2021/12/08 02:09:15;;;;;;;18.92;10.20;;;3.70;99.90;;;;;;5131627;27;20050;-59
2021/12/08 02:11:48;;;;;;;21.55;12.55;;;3.70;99.90;;;;;;5123460;27;20039;-58
2021/12/08 02:14:14;;;;;;;19.13;11.68;;;3.70;99.90;;;;;;5126632;27;20068;-59
2021/12/08 02:16:40;;;;;;;17.38;11.30;;;3.70;99.90;;;;;;5133062;27;20118;-58
2021/12/08 02:19:06;;;;;;;23.05;12.68;;;3.70;99.90;;;;;;5124647;27;20226;-58
2021/12/08 02:21:41;;;;;;;16.08;11.07;;;3.70;99.90;;;;;;5125548;27;21960;-57
2021/12/08 02:24:12;;;;;;;23.83;12.05;;;3.80;99.90;;;;;;5128786;27;20513;-59
2021/12/08 02:26:40;;;;;;;16.75;10.85;;;3.80;99.90;;;;;;5123798;27;20382;-59
2021/12/08 02:29:09;;;;;;;19.35;11.77;;;3.80;99.90;;;;;;5131864;27;20042;-57
2021/12/08 02:47:54;;;;;;;17.23;10.80;;;4.00;99.90;;;;;;5132476;27;20046;-58
2021/12/08 02:50:40;;;;;;;19.58;10.75;;;4.20;99.90;;;;;;5122761;27;20055;-58
2021/12/08 02:53:07;;;;;;;15.65;11.20;;;4.00;99.90;;;;;;5129163;27;20077;-59
2021/12/08 02:55:34;;;;;;;17.20;11.60;;;4.00;99.90;;;;;;5127464;27;20657;-59
2021/12/08 02:58:01;;;;;;;16.00;11.60;;;4.10;99.90;;;;;;5130711;27;20031;-61
2021/12/08 03:00:29;;;;;;;17.23;11.45;;;4.10;99.90;;;;;;5131655;27;20176;-61
2021/12/08 03:02:59;;;;;;;22.88;11.63;;;4.10;99.90;;;;;;5132409;27;20038;-58
2021/12/08 03:05:26;;;;;;;19.13;12.18;;;4.10;99.90;;;;;;5130953;27;20031;-60
2021/12/08 03:07:52;;;;;;;19.55;12.48;;;4.10;99.90;;;;;;5125223;27;20157;-61
2021/12/08 03:10:22;;;;;;;26.58;13.23;;;4.20;99.90;;;;;;5128226;27;20114;-61
2021/12/08 03:12:48;;;;;;;19.30;12.45;;;4.20;99.90;;;;;;5130930;27;20418;-60
2021/12/08 03:15:15;;;;;;;17.52;12.18;;;4.60;99.90;;;;;;5130272;27;20173;-58
2021/12/08 03:17:41;;;;;;;20.50;13.27;;;4.20;99.90;;;;;;5130100;27;20035;-61
2021/12/08 03:20:11;;;;;;;21.73;14.40;;;4.20;99.90;;;;;;5130696;27;20035;-58
2021/12/08 03:22:42;;;;;;;24.15;14.15;;;4.30;99.90;;;;;;5126807;27;20066;-59
2021/12/08 03:25:12;;;;;;;23.38;14.23;;;4.30;99.90;;;;;;5129658;27;20038;-59
2021/12/08 03:27:45;;;;;;;25.05;14.95;;;4.30;99.90;;;;;;5123634;27;20035;-59
2021/12/08 03:30:15;;;;;;;21.00;14.75;;;4.30;99.90;;;;;;5130572;27;20118;-61
2021/12/08 03:32:41;;;;;;;22.98;14.20;;;4.30;99.90;;;;;;5127054;27;20054;-60
2021/12/08 03:35:11;;;;;;;20.17;14.52;;;4.30;99.90;;;;;;5126236;27;20038;-61
2021/12/08 03:37:41;;;;;;;24.33;14.73;;;4.30;99.90;;;;;;5127537;27;20058;-59
2021/12/08 03:40:17;;;;;;;23.45;15.02;;;4.40;99.90;;;;;;5130331;27;20031;-58
2021/12/08 03:42:43;;;;;;;21.15;14.07;;;4.40;99.90;;;;;;5122540;27;20040;-59
2021/12/08 03:45:17;;;;;;;25.48;14.57;;;4.40;99.90;;;;;;5130993;27;20035;-59
2021/12/08 03:47:47;;;;;;;24.30;15.20;;;4.40;99.90;;;;;;5122275;27;20035;-59
2021/12/08 03:50:14;;;;;;;23.17;15.20;;;4.50;99.90;;;;;;5128380;28;20039;-58
2021/12/08 03:52:41;;;;;;;21.30;14.35;;;4.50;99.90;;;;;;5126460;27;20175;-60
2021/12/08 03:55:09;;;;;;;25.27;14.52;;;4.50;99.90;;;;;;5128849;27;20382;-61
2021/12/08 03:57:35;;;;;;;25.55;14.13;;;4.50;99.90;;;;;;5129956;27;20043;-59
2021/12/08 04:00:03;;;;;;;22.55;14.43;;;4.50;99.90;;;;;;5131778;28;20114;-58
2021/12/08 04:02:29;;;;;;;17.92;13.05;;;4.60;99.90;;;;;;5130097;27;20140;-60
2021/12/08 04:04:55;;;;;;;21.63;13.68;;;4.80;99.90;;;;;;5125665;28;20115;-61
2021/12/08 04:07:21;;;;;;;20.85;13.10;;;4.60;99.90;;;;;;5129785;27;20027;-58
2021/12/08 04:09:49;;;;;;;21.90;13.70;;;4.60;99.90;;;;;;5127915;28;20047;-59
2021/12/08 04:12:17;;;;;;;20.77;12.32;;;4.60;99.90;;;;;;5130085;27;20080;-59
2021/12/08 04:14:50;;;;;;;19.67;12.45;;;4.70;99.90;;;;;;5126230;27;20058;-58
2021/12/08 04:17:39;;;;;;;19.30;12.10;;;4.70;99.90;;;;;;5131141;27;20118;-62
2021/12/08 04:20:19;;;;;;;18.95;11.45;;;4.70;99.90;;;;;;5123897;28;20047;-58
2021/12/08 04:22:47;;;;;;;21.75;12.52;;;4.70;99.90;;;;;;5129003;28;20379;-59
2021/12/08 04:25:19;;;;;;;17.75;12.18;;;4.70;99.90;;;;;;5117461;27;20051;-58
2021/12/08 04:27:49;;;;;;;21.95;12.25;;;4.70;99.90;;;;;;5127857;28;20111;-57
2021/12/08 04:30:28;;;;;;;19.25;11.93;;;4.60;99.90;;;;;;5126886;27;20043;-57
2021/12/08 04:32:55;;;;;;;17.33;11.77;;;4.60;99.90;;;;;;5130372;28;20099;-57
2021/12/08 04:35:24;;;;;;;20.25;11.98;;;4.60;99.90;;;;;;5128263;27;20035;-59
2021/12/08 04:37:55;;;;;;;21.90;11.57;;;5.40;99.90;;;;;;5131795;27;20490;-60
2021/12/08 04:40:33;;;;;;;17.35;11.27;;;4.50;99.90;;;;;;5128678;27;20086;-60
2021/12/08 04:43:15;;;;;;;23.27;12.02;;;4.50;99.90;;;;;;5134282;27;20066;-59
2021/12/08 04:45:57;;;;;;;19.85;11.63;;;4.40;99.90;;;;;;5132757;27;20039;-60
2021/12/08 05:01:34;;;;;;;19.67;11.88;;;4.40;99.90;;;;;;5132966;27;20105;-58
2021/12/08 05:04:25;;;;;;;21.05;12.30;;;4.40;99.90;;;;;;5133431;27;20379;-59
2021/12/08 05:07:17;;;;;;;20.15;11.40;;;4.40;99.90;;;;;;5125196;27;20036;-60
2021/12/08 05:09:45;;;;;;;19.92;11.85;;;4.40;99.90;;;;;;5134941;27;20389;-58
2021/12/08 05:12:27;;;;;;;21.23;11.10;;;4.40;99.90;;;;;;5130886;27;20122;-59
2021/12/08 05:14:56;;;;;;;18.48;11.52;;;4.40;99.90;;;;;;5133361;27;20070;-60
2021/12/08 05:17:32;;;;;;;17.42;10.80;;;4.40;99.90;;;;;;5128907;27;20059;-59
2021/12/08 05:20:05;;;;;;;20.33;12.35;;;4.40;99.90;;;;;;5134062;27;20510;-59
2021/12/08 05:22:38;;;;;;;22.40;12.55;;;4.40;99.90;;;;;;5130943;27;20039;-59
2021/12/08 05:25:09;;;;;;;23.45;10.95;;;4.50;99.90;;;;;;5132867;27;20170;-60
2021/12/08 05:27:43;;;;;;;19.75;11.13;;;4.40;99.90;;;;;;5131032;27;20038;-60
2021/12/08 05:30:22;;;;;;;22.05;11.07;;;4.70;99.90;;;;;;5131386;27;20141;-60
2021/12/08 05:32:49;;;;;;;17.73;10.43;;;4.40;99.90;;;;;;5132132;27;20293;-59
2021/12/08 05:35:17;;;;;;;21.23;10.15;;;4.40;99.90;;;;;;5132851;27;20043;-60
2021/12/08 05:37:42;;;;;;;17.23;10.90;;;4.40;99.90;;;;;;5126062;27;20043;-58
2021/12/08 05:40:14;;;;;;;18.17;10.35;;;4.30;99.90;;;;;;5131964;27;20493;-58
2021/12/08 05:42:41;;;;;;;21.55;9.95;;;4.30;99.90;;;;;;5125086;27;20129;-58
2021/12/08 05:45:11;;;;;;;21.25;10.43;;;4.30;99.90;;;;;;5133657;27;20093;-58
2021/12/08 05:47:38;;;;;;;22.02;10.25;;;4.30;99.90;;;;;;5130445;27;20042;-60
2021/12/08 05:50:05;;;;;;;22.52;10.55;;;4.40;99.90;;;;;;5127210;27;20044;-60
2021/12/08 05:52:31;;;;;;;15.00;9.43;;;4.40;99.90;;;;;;5126548;27;20035;-60
2021/12/08 05:54:57;;;;;;;17.17;9.18;;;4.40;99.90;;;;;;5132425;27;20023;-60
2021/12/08 05:57:32;;;;;;;21.67;8.40;;;4.40;99.90;;;;;;5128632;27;20145;-60
2021/12/08 05:59:58;;;;;;;20.38;8.73;;;4.40;99.90;;;;;;5133596;27;20031;-59
2021/12/08 06:02:27;;;;;;;15.98;8.27;;;4.40;99.90;;;;;;5129783;27;20084;-58
2021/12/08 06:04:54;;;;;;;17.40;8.68;;;4.40;99.90;;;;;;5128509;27;20039;-58
2021/12/08 06:07:22;;;;;;;16.90;8.63;;;4.40;99.90;;;;;;5120728;27;20095;-58
2021/12/08 06:09:53;;;;;;;17.73;7.57;;;4.30;99.90;;;;;;5128478;27;20039;-58
2021/12/08 06:12:19;;;;;;;14.43;7.55;;;4.40;99.90;;;;;;5130060;27;20038;-60
2021/12/08 06:14:46;;;;;;;18.20;7.30;;;4.40;99.90;;;;;;5130075;27;20039;-60
2021/12/08 06:17:15;;;;;;;16.83;7.57;;;4.40;99.90;;;;;;5115455;27;20043;-61
2021/12/08 06:19:43;;;;;;;15.10;7.18;;;4.40;99.90;;;;;;5113125;27;20036;-62
2021/12/08 06:22:11;;;;;;;18.30;7.50;;;4.40;99.90;;;;;;5130159;27;20378;-60
2021/12/08 06:24:37;;;;;;;12.43;6.30;;;4.40;99.90;;;;;;5131714;27;20487;-60
2021/12/08 06:27:04;;;;;;;15.52;6.60;;;4.30;99.90;;;;;;5131120;27;20042;-59
2021/12/08 06:29:30;;;;;;;16.20;6.57;;;4.30;99.90;;;;;;5126366;27;20134;-59
2021/12/08 06:31:58;;;;;;;13.05;6.07;;;4.30;99.90;;;;;;5131346;27;20035;-61
2021/12/08 06:34:26;;;;;;;14.88;6.70;;;4.30;99.90;;;;;;5128073;27;20122;-60
2021/12/08 06:36:58;;;;;;;15.80;6.15;;;4.20;99.90;;;;;;5119286;27;20490;-60
2021/12/08 06:39:28;;;;;;;17.05;7.32;;;4.20;99.90;;;;;;5132561;27;20031;-59
2021/12/08 06:42:00;;;;;;;14.27;6.60;;;4.40;99.90;;;;;;5129547;27;20039;-59
2021/12/08 06:44:35;;;;;;;13.07;6.43;;;4.50;99.90;;;;;;5130709;27;20051;-58
2021/12/08 06:47:05;;;;;;;14.70;6.30;;;4.20;99.90;;;;;;5127793;27;20047;-58
2021/12/08 06:49:31;;;;;;;15.82;7.03;;;4.20;99.90;;;;;;5130933;27;20085;-61
2021/12/08 06:52:10;;;;;;;16.23;5.82;;;4.30;99.90;;;;;;5125422;27;20042;-60
2021/12/08 06:55:03;;;;;;;16.40;5.30;;;4.20;99.90;;;;;;5125668;27;20039;-58
2021/12/08 06:57:40;;;;;;;14.30;5.60;;;4.20;99.90;;;;;;5122298;27;20504;-58
2021/12/08 07:00:23;;;;;;;14.20;5.88;;;4.20;99.90;;;;;;5130418;27;20399;-60
2021/12/08 07:03:00;;;;;;;13.02;4.90;;;4.20;99.90;;;;;;5132234;27;20371;-59
2021/12/08 07:05:42;;;;;;;10.95;4.88;;;4.30;99.90;;;;;;5129434;27;20127;-60
2021/12/08 07:08:10;;;;;;;15.98;5.30;;;4.30;99.90;;;;;;5129910;27;20063;-59
2021/12/08 07:10:43;;;;;;;13.10;4.88;;;4.30;99.90;;;;;;5128030;27;20128;-61
2021/12/08 07:13:14;;;;;;;13.13;4.60;;;4.20;99.90;;;;;;5129074;27;20035;-59
2021/12/08 07:15:42;;;;;;;12.20;4.95;;;4.20;99.90;;;;;;5131615;27;20070;-59
2021/12/08 07:18:13;;;;;;;12.60;4.20;;;4.20;99.90;;;;;;5131008;27;20043;-61
2021/12/08 07:20:45;;;;;;;9.73;4.25;;;4.20;99.90;;;;;;5127694;27;20058;-59
2021/12/08 07:23:36;;;;;;;10.05;3.45;;;4.20;99.90;;;;;;5126020;27;20059;-58
2021/12/08 07:26:06;;;;;;;13.95;4.13;;;4.20;99.90;;;;;;5127587;27;20035;-60
2021/12/08 07:28:33;;;;;;;9.43;4.05;;;4.20;99.90;;;;;;5131834;27;20027;-60
2021/12/08 07:31:09;;;;;;;11.85;3.78;;;4.20;99.90;;;;;;5128014;27;20043;-59
2021/12/08 07:33:36;;;;;;;9.77;4.38;;;4.20;99.90;;;;;;5130775;27;20108;-60
2021/12/08 07:36:05;;;;;;;9.43;3.75;;;4.10;99.90;;;;;;5124427;27;20115;-58
2021/12/08 07:38:32;;;;;;;10.38;4.03;;;4.10;99.90;;;;;;5126659;27;20042;-60
2021/12/08 07:41:15;;;;;;;14.85;3.92;;;4.10;99.90;;;;;;5127126;27;20050;-59
2021/12/08 07:43:44;;;;;;;14.13;3.60;;;4.10;99.90;;;;;;5129562;27;20394;-61
2021/12/08 07:46:17;;;;;;;14.80;3.55;;;4.10;99.90;;;;;;5128094;27;20073;-58
2021/12/08 07:48:48;;;;;;;12.57;3.20;;;4.20;99.90;;;;;;5127305;28;20114;-59
2021/12/08 07:51:21;;;;;;;11.85;3.47;;;4.20;99.90;;;;;;5127119;27;20421;-58
2021/12/08 07:53:48;;;;;;;15.43;3.20;;;4.30;99.90;;;;;;5127730;28;20027;-58
2021/12/08 07:56:17;;;;;;;8.98;2.83;;;4.30;99.90;;;;;;5125113;27;20618;-59
2021/12/08 07:58:51;;;;;;;9.93;2.65;;;4.30;99.90;;;;;;5131355;27;20061;-60
2021/12/08 08:01:21;;;;;;;10.88;2.45;;;4.30;99.90;;;;;;5121586;27;20692;-57
2021/12/08 08:03:47;;;;;;;11.00;2.60;;;4.30;99.90;;;;;;5097785;27;20064;-59
2021/12/08 08:06:33;;;;;;;9.40;2.63;;;4.30;99.90;;;;;;5098762;28;20043;-60
2021/12/08 08:08:59;;;;;;;12.00;2.38;;;4.30;99.90;;;;;;5124013;28;20035;-59
2021/12/08 08:11:41;;;;;;;9.05;2.40;;;4.30;99.90;;;;;;5128442;27;20065;-61
2021/12/08 08:14:10;;;;;;;11.15;2.80;;;4.40;99.90;;;;;;5132165;27;20035;-61
2021/12/08 08:16:37;;;;;;;11.23;2.70;;;4.40;99.90;;;;;;5114905;27;20035;-61
2021/12/08 08:19:12;;;;;;;11.38;2.92;;;4.40;99.90;;;;;;5125518;27;20039;-60
2021/12/08 08:21:45;;;;;;;10.25;2.35;;;4.40;99.90;;;;;;5120364;27;20027;-60
2021/12/08 08:24:12;;;;;;;8.20;2.50;;;4.30;99.90;;;;;;5127003;27;20054;-60
2021/12/08 08:26:40;;;;;;;13.48;2.83;;;4.40;99.90;;;;;;5122280;27;20173;-59
2021/12/08 08:29:07;;;;;;;12.25;2.42;;;4.40;99.90;;;;;;5126291;27;20035;-59
2021/12/08 08:31:40;;;;;;;8.07;2.40;;;4.40;99.90;;;;;;5102150;27;20190;-60
2021/12/08 08:34:08;;;;;;;9.07;2.40;;;4.40;99.90;;;;;;5093485;27;20042;-61
2021/12/08 08:36:43;;;;;;;9.70;2.47;;;4.40;99.90;;;;;;5091399;27;20043;-60
2021/12/08 08:39:11;;;;;;;12.00;2.75;;;4.50;99.90;;;;;;5091774;27;20150;-59
2021/12/08 08:41:44;;;;;;;11.82;2.65;;;4.50;99.90;;;;;;5089698;27;20081;-59
2021/12/08 08:44:25;;;;;;;16.55;2.75;;;4.50;99.90;;;;;;5112416;27;20117;-60
2021/12/08 08:46:54;;;;;;;12.25;2.47;;;4.40;99.90;;;;;;5118057;27;20588;-59
2021/12/08 08:49:24;;;;;;;11.63;2.10;;;5.60;99.90;;;;;;5122197;27;20039;-60
2021/12/08 08:51:59;;;;;;;11.82;2.83;;;4.50;99.90;;;;;;5119106;27;20067;-61
2021/12/08 08:54:29;;;;;;;9.82;1.98;;;4.50;99.90;;;;;;5121264;27;20039;-60
2021/12/08 08:57:04;;;;;;;11.90;2.35;;;4.50;99.90;;;;;;5117888;27;20031;-59
2021/12/08 08:59:35;;;;;;;11.10;2.40;;;4.50;99.90;;;;;;5123512;27;20194;-61
2021/12/08 09:02:07;;;;;;;15.63;2.75;;;4.50;99.90;;;;;;5123520;27;20041;-60
2021/12/08 09:04:37;;;;;;;11.55;2.38;;;4.50;99.90;;;;;;5124758;27;20587;-59
2021/12/08 09:07:07;;;;;;;8.18;2.00;;;4.50;99.90;;;;;;5120096;27;20091;-62
2021/12/08 09:09:38;;;;;;;13.05;2.88;;;4.50;99.90;;;;;;5125003;27;20129;-58
2021/12/08 09:12:13;;;;;;;9.95;2.17;;;4.60;99.90;;;;;;5116998;27;20482;-60
2021/12/08 09:14:48;;;;;;;11.40;2.22;;;4.50;99.90;;;;;;5122278;27;20558;-60
2021/12/08 09:17:13;;;;;;;12.20;2.30;;;4.50;99.90;;;;;;5123943;27;20035;-60
2021/12/08 09:19:57;;;;;;;12.02;2.65;;;4.50;99.90;;;;;;5124437;27;20389;-58
2021/12/08 09:22:30;;;;;;;14.55;2.35;;;4.50;99.90;;;;;;5121221;27;20120;-59
2021/12/08 09:25:08;;;;;;;9.20;2.60;;;4.50;99.90;;;;;;5126403;27;20057;-61
2021/12/08 09:27:39;;;;;;;8.13;2.22;;;4.50;99.90;;;;;;5123305;27;20087;-60
2021/12/08 09:30:16;;;;;;;11.98;2.38;;;4.60;99.90;;;;;;5123540;27;20043;-59
2021/12/08 09:32:53;;;;;;;14.93;2.35;;;4.60;99.90;;;;;;5122929;27;20419;-60
2021/12/08 09:35:26;;;;;;;14.30;2.22;;;4.60;99.90;;;;;;5119679;27;20031;-59
2021/12/08 09:38:00;;;;;;;11.30;2.20;;;4.60;99.90;;;;;;5122659;27;20122;-61
2021/12/08 09:40:41;;;;;;;12.00;2.50;;;4.70;99.90;;;;;;5123439;27;20043;-61
2021/12/08 09:43:16;;;;;;;14.30;3.22;;;4.80;99.90;;;;;;5119245;27;20039;-60
2021/12/08 09:45:51;;;;;;;12.45;2.75;;;4.90;99.90;;;;;;5120062;27;20031;-60
2021/12/08 09:48:17;;;;;;;9.60;2.00;;;4.90;99.90;;;;;;5119653;27;20364;-59
2021/12/08 09:50:44;;;;;;;9.82;2.45;;;5.00;99.90;;;;;;5118831;27;20043;-59
2021/12/08 09:53:09;;;;;;;11.68;2.67;;;5.10;99.90;;;;;;5120512;27;20042;-60
2021/12/08 09:55:35;;;;;;;9.57;2.30;;;5.10;99.90;;;;;;5120020;27;20028;-60
2021/12/08 09:58:04;;;;;;;12.48;2.75;;;5.20;99.90;;;;;;5118434;27;20039;-58
2021/12/08 10:00:33;;;;;;;12.88;2.53;;;5.20;99.90;;;;;;5118996;27;20094;-59
2021/12/08 10:03:00;;;;;;;7.95;2.03;;;5.30;99.90;;;;;;5117930;27;20563;-58
2021/12/08 10:05:29;;;;;;;11.70;2.58;;;5.30;99.90;;;;;;5120896;27;20039;-60
2021/12/08 10:07:56;;;;;;;11.35;2.58;;;5.40;99.90;;;;;;5123455;27;20034;-59
2021/12/08 10:10:23;;;;;;;11.35;2.22;;;5.60;99.90;;;;;;5120079;27;20490;-60
2021/12/08 10:12:49;;;;;;;9.93;2.33;;;5.70;99.90;;;;;;5122240;27;20027;-60
2021/12/08 10:15:18;;;;;;;10.43;2.10;;;6.00;99.90;;;;;;5113131;27;20039;-60
2021/12/08 10:17:45;;;;;;;9.38;2.15;;;5.90;99.90;;;;;;5085197;27;20058;-60
2021/12/08 10:20:27;;;;;;;10.90;2.08;;;6.10;99.90;;;;;;5087031;27;20065;-61
2021/12/08 10:23:27;;;;;;;10.98;2.22;;;6.20;99.90;;;;;;5102871;27;20118;-62
2021/12/08 10:26:14;;;;;;;8.85;2.03;;;6.40;99.90;;;;;;5116810;27;20045;-59
2021/12/08 10:28:49;;;;;;;11.70;2.05;;;6.30;99.90;;;;;;5125355;27;20035;-59
2021/12/08 10:31:15;;;;;;;10.50;2.10;;;6.10;99.90;;;;;;5118990;27;20156;-60
2021/12/08 10:34:02;;;;;;;9.55;2.10;;;6.00;99.90;;;;;;5123816;27;20279;-61
2021/12/08 10:36:47;;;;;;;10.70;2.45;;;5.90;99.90;;;;;;5121565;27;20027;-60
2021/12/08 10:39:21;;;;;;;11.50;2.13;;;6.00;99.90;;;;;;5123911;27;20501;-60
2021/12/08 10:41:46;;;;;;;10.63;2.05;;;6.20;99.90;;;;;;5121514;27;20031;-61
2021/12/08 10:44:12;;;;;;;11.15;2.13;;;6.20;99.90;;;;;;5124817;27;20319;-60
2021/12/08 10:46:38;;;;;;;13.90;2.22;;;6.10;99.90;;;;;;5119910;27;20032;-63
2021/12/08 10:54:45;;;;;;;9.02;2.20;;;6.50;99.90;;;;;;5113503;27;20090;-59
2021/12/08 10:57:31;;;;;;;10.45;2.05;;;6.70;99.90;;;;;;5118633;27;20062;-60
2021/12/08 11:00:13;;;;;;;12.95;2.38;;;6.90;99.90;;;;;;5122508;27;20026;-60
2021/12/08 11:02:41;;;;;;;8.88;2.20;;;7.00;99.90;;;;;;5123450;27;20051;-61
2021/12/08 11:05:48;;;;;;;11.20;2.10;;;7.10;99.90;;;;;;5122624;27;20039;-60
2021/12/08 11:08:36;;;;;;;8.77;2.05;;;7.30;99.90;;;;;;5118482;27;20035;-62
2021/12/08 11:11:11;;;;;;;8.35;1.90;;;7.40;99.90;;;;;;5119660;27;20126;-59
2021/12/08 11:13:42;;;;;;;7.47;2.10;;;7.30;99.90;;;;;;5119764;27;20074;-61
2021/12/08 11:16:16;;;;;;;9.65;2.30;;;7.10;99.90;;;;;;5119578;27;20038;-60
2021/12/08 11:18:48;;;;;;;8.70;2.20;;;7.00;99.90;;;;;;5120990;27;20039;-58
2021/12/08 11:21:21;;;;;;;11.88;2.05;;;6.90;99.90;;;;;;5120346;27;20074;-59
2021/12/08 11:23:49;;;;;;;7.15;1.70;;;6.70;99.90;;;;;;5119143;27;20069;-59
2021/12/08 11:26:33;;;;;;;9.02;1.60;;;6.60;99.90;;;;;;5118687;27;20034;-60
2021/12/08 11:29:18;;;;;;;7.78;1.75;;;6.40;99.90;;;;;;5122040;27;20164;-60
2021/12/08 11:32:06;;;;;;;7.40;1.90;;;6.30;99.90;;;;;;5114687;27;20055;-58
2021/12/08 11:34:40;;;;;;;8.55;1.88;;;6.30;99.90;;;;;;5121049;27;20599;-59
2021/12/08 11:37:15;;;;;;;7.25;1.95;;;6.20;99.90;;;;;;5123213;27;20035;-60
2021/12/08 11:39:55;;;;;;;8.13;1.67;;;6.20;99.90;;;;;;5130276;27;20065;-60
2021/12/08 11:42:31;;;;;;;10.15;1.63;;;6.10;99.90;;;;;;5120334;27;20072;-58
2021/12/08 11:45:00;;;;;;;7.88;1.90;;;6.10;99.90;;;;;;5118495;27;20039;-60
2021/12/08 11:47:35;;;;;;;8.35;2.10;;;6.20;99.90;;;;;;5107512;28;20043;-61
2021/12/08 12:05:31;;;;;;;12.13;2.55;;;6.00;99.90;;;;;;5127775;27;20948;-57
2021/12/08 12:07:57;;;;;;;15.95;6.30;;;6.20;99.90;;;;;;5127482;28;20043;-54
2021/12/08 12:10:26;;;;;;;15.55;6.00;;;6.20;99.90;;;;;;5119178;28;20517;-54
2021/12/08 12:12:52;;;;;;;9.80;2.13;;;6.10;99.90;;;;;;5099932;28;20054;-53
2021/12/08 12:15:20;;;;;;;11.48;2.28;;;6.10;99.90;;;;;;5122080;27;20035;-53
2021/12/08 12:17:47;;;;;;;7.63;2.35;;;6.10;99.90;;;;;;5124907;28;20055;-53
2021/12/08 12:20:41;;;;;;;11.65;2.22;;;6.10;99.90;;;;;;5124566;28;20039;-53
2021/12/08 12:23:13;;;;;;;10.82;2.35;;;6.10;99.90;;;;;;5126284;28;20538;-53
2021/12/08 12:26:00;;;;;;;8.85;2.60;;;6.10;99.90;;;;;;5124241;27;20051;-53
2021/12/08 12:28:51;;;;;;;7.70;1.92;;;6.10;99.90;;;;;;5123339;28;20069;-54
2021/12/08 12:31:41;;;;;;;8.20;2.47;;;6.10;99.90;;;;;;5103576;28;20079;-54
2021/12/08 12:34:39;;;;;;;9.55;2.80;;;6.10;99.90;;;;;;5120729;27;20050;-50
2021/12/08 12:37:25;;;;;;;9.35;2.45;;;6.10;99.90;;;;;;5119998;28;20035;-54
2021/12/08 12:39:54;;;;;;;10.75;3.00;;;6.20;99.90;;;;;;5122294;28;20046;-56
2021/12/08 12:42:20;;;;;;;11.48;2.60;;;6.10;99.90;;;;;;5125293;27;20039;-58
2021/12/08 12:45:08;;;;;;;8.80;2.40;;;6.20;99.90;;;;;;5122994;28;20067;-56
2021/12/08 12:47:35;;;;;;;11.15;3.22;;;6.10;99.90;;;;;;5100648;28;20125;-57
2021/12/08 12:50:00;;;;;;;10.65;2.97;;;6.10;99.90;;;;;;5123613;28;20050;-57
2021/12/08 12:52:48;;;;;;;8.50;3.08;;;6.10;99.90;;;;;;5124499;28;20405;-57
2021/12/08 12:55:22;;;;;;;9.95;3.28;;;6.10;99.90;;;;;;5124669;28;20037;-58
2021/12/08 12:58:05;;;;;;;9.88;3.28;;;6.10;99.90;;;;;;5126262;27;20031;-58
2021/12/08 13:00:39;;;;;;;12.05;3.33;;;6.10;99.90;;;;;;5125236;28;20043;-58
2021/12/08 13:03:06;;;;;;;7.85;2.97;;;6.10;99.90;;;;;;5127394;27;20055;-58
2021/12/08 13:05:51;;;;;;;9.02;3.22;;;6.10;99.90;;;;;;5117967;28;20051;-59
2021/12/08 13:08:36;;;;;;;10.15;3.00;;;6.10;99.90;;;;;;5091920;28;20599;-59
2021/12/08 13:11:44;;;;;;;9.57;2.90;;;6.10;99.90;;;;;;5088907;28;20050;-56
2021/12/08 13:14:23;;;;;;;11.10;3.42;;;6.10;99.90;;;;;;5111879;28;20040;-56
2021/12/08 13:17:13;;;;;;;10.10;3.13;;;6.20;99.90;;;;;;5114329;28;20039;-56
2021/12/08 13:19:50;;;;;;;8.88;3.20;;;6.20;99.90;;;;;;5114335;28;20036;-57
2021/12/08 13:22:53;;;;;;;11.50;3.13;;;6.20;99.90;;;;;;5114009;28;20028;-57
2021/12/08 13:25:23;;;;;;;13.63;2.88;;;6.20;99.90;;;;;;5076667;28;20036;-56
2021/12/08 13:27:54;;;;;;;8.77;2.45;;;6.20;99.90;;;;;;5077889;28;20055;-56
2021/12/08 13:30:20;;;;;;;8.60;2.85;;;6.20;99.90;;;;;;5066989;28;20063;-57
2021/12/08 13:32:47;;;;;;;12.05;3.08;;;6.30;99.90;;;;;;5074677;28;20150;-57
2021/12/08 13:35:37;;;;;;;11.23;2.72;;;6.20;99.90;;;;;;5125037;27;20051;-57
2021/12/08 13:38:04;;;;;;;7.93;2.70;;;6.20;99.90;;;;;;5112622;28;20119;-57
2021/12/08 13:40:49;;;;;;;10.32;3.30;;;6.30;99.90;;;;;;5107640;28;20076;-57
2021/12/08 13:43:35;;;;;;;11.32;3.28;;;6.20;99.90;;;;;;5113343;28;20587;-57
2021/12/08 13:46:01;;;;;;;9.85;2.80;;;6.20;99.90;;;;;;5094863;28;20106;-57
2021/12/08 13:48:27;;;;;;;8.80;2.72;;;6.20;99.90;;;;;;5077598;28;20036;-57
2021/12/08 13:50:53;;;;;;;10.05;2.97;;;6.10;99.90;;;;;;5109673;28;20073;-57
2021/12/08 13:53:19;;;;;;;6.20;2.60;;;6.10;99.90;;;;;;5111456;28;20036;-57
2021/12/08 13:55:53;;;;;;;12.23;2.97;;;6.10;99.90;;;;;;5111422;28;20115;-57
2021/12/08 13:58:20;;;;;;;9.45;2.70;;;6.10;99.90;;;;;;5111637;28;20137;-56
2021/12/08 14:00:50;;;;;;;9.40;2.97;;;6.10;99.90;;;;;;5085957;28;20059;-57
2021/12/08 14:03:46;;;;;;;9.32;2.78;;;6.10;99.90;;;;;;5110216;28;20041;-58
2021/12/08 14:06:13;;;;;;;11.93;2.80;;;6.10;99.90;;;;;;5077163;27;20083;-57